Portada
METAR-TAF:

METAR-TAF

Aeroports :

Gifu, Japó

latitud: 35-23N, longitud: 136-52E, altitud: 39 m

Observació

L'informe es va fer fa 34 minuts, a les 16:34 UTC
Vent 4 kt del Oest/Nord-Oest
Temperatura 25°C
Humitat 65%
Pressió 1004 hPa
Visibilitat 10 km o més
Escasses núvols a una alçada de 3000 ft
Cel ennuvolat a una alçada de 6000 ft

METAR: RJNG 161634Z 29004KT 9999 FEW030 BKN060 25/18 Q1004 RMK 1CU030 5SC060 A2967

Hora: 02:08 (17:08 UTC)


TAF: manca

Observacions i pronòstics meteorològics de més de 4000 aeroports (METAR i TAF).

Les estacions disponibles són els punts grocs i vermells al mapa.

Posi el ratolí al punt desitjat per veure el nom de l'estació.

Feu clic per veure les observacions i els pronòstics meteorològics.

Per canviar el mapa: feu clic els botons verds amb una creu de color negre per apropar; al botó verd amb un guió per allunyar la imatge; o en les fletxes verdes per a mapes adjacents.


METAR-TAF: